sensor_id;sensor_type;location;lat;lon;timestamp;temperature;humidity
58469;DHT22;44257;44.804;10.220;2022-07-01T00:01:40;22.90;56.90
58469;DHT22;44257;44.804;10.220;2022-07-01T00:04:07;22.90;56.10
58469;DHT22;44257;44.804;10.220;2022-07-01T00:06:33;22.90;56.30
58469;DHT22;44257;44.804;10.220;2022-07-01T00:08:59;22.80;56.60
58469;DHT22;44257;44.804;10.220;2022-07-01T00:11:25;22.80;56.70
58469;DHT22;44257;44.804;10.220;2022-07-01T00:13:51;22.80;56.60
58469;DHT22;44257;44.804;10.220;2022-07-01T00:16:18;22.70;56.80
58469;DHT22;44257;44.804;10.220;2022-07-01T00:18:43;22.70;57.20
58469;DHT22;44257;44.804;10.220;2022-07-01T00:21:09;22.70;57.50
58469;DHT22;44257;44.804;10.220;2022-07-01T00:23:35;22.70;57.60
58469;DHT22;44257;44.804;10.220;2022-07-01T00:26:02;22.60;56.70
58469;DHT22;44257;44.804;10.220;2022-07-01T00:28:27;22.60;57.30
58469;DHT22;44257;44.804;10.220;2022-07-01T00:30:53;22.60;57.50
58469;DHT22;44257;44.804;10.220;2022-07-01T00:33:19;22.50;57.70
58469;DHT22;44257;44.804;10.220;2022-07-01T00:35:45;22.50;57.20
58469;DHT22;44257;44.804;10.220;2022-07-01T00:38:11;22.50;57.00
58469;DHT22;44257;44.804;10.220;2022-07-01T00:40:36;22.50;56.70
58469;DHT22;44257;44.804;10.220;2022-07-01T00:43:02;22.40;57.10
58469;DHT22;44257;44.804;10.220;2022-07-01T00:45:28;22.50;57.10
58469;DHT22;44257;44.804;10.220;2022-07-01T00:47:56;22.40;56.40
58469;DHT22;44257;44.804;10.220;2022-07-01T00:50:22;22.50;56.50
58469;DHT22;44257;44.804;10.220;2022-07-01T00:52:48;22.50;56.60
58469;DHT22;44257;44.804;10.220;2022-07-01T00:55:14;22.50;56.40
58469;DHT22;44257;44.804;10.220;2022-07-01T00:57:42;22.40;56.50
58469;DHT22;44257;44.804;10.220;2022-07-01T01:00:11;22.40;56.40
58469;DHT22;44257;44.804;10.220;2022-07-01T01:02:38;22.40;56.20
58469;DHT22;44257;44.804;10.220;2022-07-01T01:05:06;22.40;56.10
58469;DHT22;44257;44.804;10.220;2022-07-01T01:07:33;22.40;55.70
58469;DHT22;44257;44.804;10.220;2022-07-01T01:10:00;22.40;55.40
58469;DHT22;44257;44.804;10.220;2022-07-01T01:12:27;22.40;55.30
58469;DHT22;44257;44.804;10.220;2022-07-01T01:14:54;22.30;55.10
58469;DHT22;44257;44.804;10.220;2022-07-01T01:17:20;22.30;55.20
58469;DHT22;44257;44.804;10.220;2022-07-01T01:19:50;22.30;54.90
58469;DHT22;44257;44.804;10.220;2022-07-01T01:22:17;22.30;54.80
58469;DHT22;44257;44.804;10.220;2022-07-01T01:24:45;22.30;55.50
58469;DHT22;44257;44.804;10.220;2022-07-01T01:27:11;22.30;55.70
58469;DHT22;44257;44.804;10.220;2022-07-01T01:29:38;22.20;56.20
58469;DHT22;44257;44.804;10.220;2022-07-01T01:32:05;22.10;57.30
58469;DHT22;44257;44.804;10.220;2022-07-01T01:34:33;22.00;57.90
58469;DHT22;44257;44.804;10.220;2022-07-01T01:36:59;21.90;57.90
58469;DHT22;44257;44.804;10.220;2022-07-01T01:39:25;21.80;57.60
58469;DHT22;44257;44.804;10.220;2022-07-01T01:41:50;21.70;57.70
58469;DHT22;44257;44.804;10.220;2022-07-01T01:44:17;21.60;58.30
58469;DHT22;44257;44.804;10.220;2022-07-01T01:46:44;21.60;58.10
58469;DHT22;44257;44.804;10.220;2022-07-01T01:49:12;21.50;59.00
58469;DHT22;44257;44.804;10.220;2022-07-01T01:51:38;21.50;59.50
58469;DHT22;44257;44.804;10.220;2022-07-01T01:54:05;21.50;58.50
58469;DHT22;44257;44.804;10.220;2022-07-01T01:56:31;21.60;58.40
58469;DHT22;44257;44.804;10.220;2022-07-01T01:58:58;21.60;57.70
58469;DHT22;44257;44.804;10.220;2022-07-01T02:01:24;21.60;58.30
58469;DHT22;44257;44.804;10.220;2022-07-01T02:03:51;21.60;58.00
58469;DHT22;44257;44.804;10.220;2022-07-01T02:06:18;21.60;57.60
58469;DHT22;44257;44.804;10.220;2022-07-01T02:08:45;21.60;57.20
58469;DHT22;44257;44.804;10.220;2022-07-01T02:11:11;21.60;57.60
58469;DHT22;44257;44.804;10.220;2022-07-01T02:13:37;21.60;57.30
58469;DHT22;44257;44.804;10.220;2022-07-01T02:16:03;21.60;57.40
58469;DHT22;44257;44.804;10.220;2022-07-01T02:18:30;21.50;57.20
58469;DHT22;44257;44.804;10.220;2022-07-01T02:20:58;21.50;57.20
58469;DHT22;44257;44.804;10.220;2022-07-01T02:23:24;21.50;57.30
58469;DHT22;44257;44.804;10.220;2022-07-01T02:25:51;21.40;57.60
58469;DHT22;44257;44.804;10.220;2022-07-01T02:28:16;21.40;57.90
58469;DHT22;44257;44.804;10.220;2022-07-01T02:30:42;21.30;57.90
58469;DHT22;44257;44.804;10.220;2022-07-01T02:33:09;21.30;58.60
58469;DHT22;44257;44.804;10.220;2022-07-01T02:35:37;21.20;59.10
58469;DHT22;44257;44.804;10.220;2022-07-01T02:38:04;21.10;58.80
58469;DHT22;44257;44.804;10.220;2022-07-01T02:40:31;21.10;59.40
58469;DHT22;44257;44.804;10.220;2022-07-01T02:42:56;21.00;58.20
58469;DHT22;44257;44.804;10.220;2022-07-01T02:45:22;20.90;58.70
58469;DHT22;44257;44.804;10.220;2022-07-01T02:47:51;20.80;59.80
58469;DHT22;44257;44.804;10.220;2022-07-01T02:50:18;20.80;60.20
58469;DHT22;44257;44.804;10.220;2022-07-01T02:52:45;20.70;60.90
58469;DHT22;44257;44.804;10.220;2022-07-01T02:55:12;20.70;62.90
58469;DHT22;44257;44.804;10.220;2022-07-01T02:57:40;20.60;63.60
58469;DHT22;44257;44.804;10.220;2022-07-01T03:00:08;20.40;63.30
58469;DHT22;44257;44.804;10.220;2022-07-01T03:02:34;20.30;63.70
58469;DHT22;44257;44.804;10.220;2022-07-01T03:05:00;20.20;63.90
58469;DHT22;44257;44.804;10.220;2022-07-01T03:07:26;20.20;64.60
58469;DHT22;44257;44.804;10.220;2022-07-01T03:09:52;20.10;64.80
58469;DHT22;44257;44.804;10.220;2022-07-01T03:12:18;20.00;65.30
58469;DHT22;44257;44.804;10.220;2022-07-01T03:14:58;19.90;66.10
58469;DHT22;44257;44.804;10.220;2022-07-01T03:17:26;19.80;66.20
58469;DHT22;44257;44.804;10.220;2022-07-01T03:19:53;19.80;66.90
58469;DHT22;44257;44.804;10.220;2022-07-01T03:22:20;19.80;67.60
58469;DHT22;44257;44.804;10.220;2022-07-01T03:24:47;19.70;66.90
58469;DHT22;44257;44.804;10.220;2022-07-01T03:27:13;19.70;66.30
58469;DHT22;44257;44.804;10.220;2022-07-01T03:29:41;19.60;65.90
58469;DHT22;44257;44.804;10.220;2022-07-01T03:32:08;19.60;66.20
58469;DHT22;44257;44.804;10.220;2022-07-01T03:34:39;19.60;66.20
58469;DHT22;44257;44.804;10.220;2022-07-01T03:37:07;19.60;67.20
58469;DHT22;44257;44.804;10.220;2022-07-01T03:39:34;19.60;67.70
58469;DHT22;44257;44.804;10.220;2022-07-01T03:42:00;19.60;68.50
58469;DHT22;44257;44.804;10.220;2022-07-01T03:44:26;19.60;68.90
58469;DHT22;44257;44.804;10.220;2022-07-01T03:46:54;19.60;68.70
58469;DHT22;44257;44.804;10.220;2022-07-01T03:49:20;19.50;69.40
58469;DHT22;44257;44.804;10.220;2022-07-01T03:51:47;19.50;69.40
58469;DHT22;44257;44.804;10.220;2022-07-01T03:54:13;19.50;68.70
58469;DHT22;44257;44.804;10.220;2022-07-01T03:57:02;19.50;69.20
58469;DHT22;44257;44.804;10.220;2022-07-01T03:59:33;19.40;68.40
58469;DHT22;44257;44.804;10.220;2022-07-01T04:01:59;19.40;68.00
58469;DHT22;44257;44.804;10.220;2022-07-01T04:04:26;19.40;68.00
58469;DHT22;44257;44.804;10.220;2022-07-01T04:06:53;19.40;67.00
58469;DHT22;44257;44.804;10.220;2022-07-01T04:09:19;19.40;67.30
58469;DHT22;44257;44.804;10.220;2022-07-01T04:11:47;19.50;67.10
58469;DHT22;44257;44.804;10.220;2022-07-01T04:14:13;19.60;67.00
58469;DHT22;44257;44.804;10.220;2022-07-01T04:16:39;19.60;66.60
58469;DHT22;44257;44.804;10.220;2022-07-01T04:19:06;19.60;66.10
58469;DHT22;44257;44.804;10.220;2022-07-01T04:21:32;19.60;66.40
58469;DHT22;44257;44.804;10.220;2022-07-01T04:24:17;19.70;65.60
58469;DHT22;44257;44.804;10.220;2022-07-01T04:26:43;19.80;65.40
58469;DHT22;44257;44.804;10.220;2022-07-01T04:29:10;19.90;64.60
58469;DHT22;44257;44.804;10.220;2022-07-01T04:31:39;20.00;65.90
58469;DHT22;44257;44.804;10.220;2022-07-01T04:34:06;20.10;67.60
58469;DHT22;44257;44.804;10.220;2022-07-01T04:36:33;20.20;67.00
58469;DHT22;44257;44.804;10.220;2022-07-01T04:38:59;20.20;66.40
58469;DHT22;44257;44.804;10.220;2022-07-01T04:41:26;20.20;66.60
58469;DHT22;44257;44.804;10.220;2022-07-01T04:44:11;20.30;65.80
58469;DHT22;44257;44.804;10.220;2022-07-01T04:46:36;20.40;65.30
58469;DHT22;44257;44.804;10.220;2022-07-01T04:49:03;20.50;63.70
58469;DHT22;44257;44.804;10.220;2022-07-01T04:51:30;20.60;63.90
58469;DHT22;44257;44.804;10.220;2022-07-01T04:53:56;20.70;63.70
58469;DHT22;44257;44.804;10.220;2022-07-01T04:56:22;20.80;63.70
58469;DHT22;44257;44.804;10.220;2022-07-01T04:58:49;20.90;62.70
58469;DHT22;44257;44.804;10.220;2022-07-01T05:01:14;21.10;64.00
58469;DHT22;44257;44.804;10.220;2022-07-01T05:03:40;21.20;64.80
58469;DHT22;44257;44.804;10.220;2022-07-01T05:06:06;21.50;64.20
58469;DHT22;44257;44.804;10.220;2022-07-01T05:08:32;22.00;63.90
58469;DHT22;44257;44.804;10.220;2022-07-01T05:10:57;22.60;61.10
58469;DHT22;44257;44.804;10.220;2022-07-01T05:13:23;23.40;58.40
58469;DHT22;44257;44.804;10.220;2022-07-01T05:15:49;24.20;57.70
58469;DHT22;44257;44.804;10.220;2022-07-01T05:18:16;25.00;57.30
58469;DHT22;44257;44.804;10.220;2022-07-01T05:21:00;25.80;56.00
58469;DHT22;44257;44.804;10.220;2022-07-01T05:23:44;26.70;55.00
58469;DHT22;44257;44.804;10.220;2022-07-01T05:26:11;27.30;53.00
58469;DHT22;44257;44.804;10.220;2022-07-01T05:28:43;27.70;53.10
58469;DHT22;44257;44.804;10.220;2022-07-01T05:31:09;28.00;52.80
58469;DHT22;44257;44.804;10.220;2022-07-01T05:33:35;28.20;52.40
58469;DHT22;44257;44.804;10.220;2022-07-01T05:36:02;28.50;52.80
58469;DHT22;44257;44.804;10.220;2022-07-01T05:38:28;28.90;52.20
58469;DHT22;44257;44.804;10.220;2022-07-01T05:40:54;29.20;50.90
58469;DHT22;44257;44.804;10.220;2022-07-01T05:43:20;29.50;50.80
58469;DHT22;44257;44.804;10.220;2022-07-01T05:45:46;29.70;50.90
58469;DHT22;44257;44.804;10.220;2022-07-01T05:48:12;29.90;51.40
58469;DHT22;44257;44.804;10.220;2022-07-01T05:50:40;30.10;50.50
58469;DHT22;44257;44.804;10.220;2022-07-01T05:53:06;30.30;51.40
58469;DHT22;44257;44.804;10.220;2022-07-01T05:55:32;30.60;49.90
58469;DHT22;44257;44.804;10.220;2022-07-01T05:57:57;30.80;49.70
58469;DHT22;44257;44.804;10.220;2022-07-01T06:00:25;31.00;48.10
58469;DHT22;44257;44.804;10.220;2022-07-01T06:02:51;31.10;48.90
58469;DHT22;44257;44.804;10.220;2022-07-01T06:05:18;31.30;49.40
58469;DHT22;44257;44.804;10.220;2022-07-01T06:07:44;31.50;49.10
58469;DHT22;44257;44.804;10.220;2022-07-01T06:10:10;31.80;48.60
58469;DHT22;44257;44.804;10.220;2022-07-01T06:12:39;31.90;48.10
58469;DHT22;44257;44.804;10.220;2022-07-01T06:15:09;31.80;48.70
58469;DHT22;44257;44.804;10.220;2022-07-01T06:17:36;31.70;49.90
58469;DHT22;44257;44.804;10.220;2022-07-01T06:20:03;31.70;51.20
58469;DHT22;44257;44.804;10.220;2022-07-01T06:22:31;31.90;50.40
58469;DHT22;44257;44.804;10.220;2022-07-01T06:24:57;32.40;49.30
58469;DHT22;44257;44.804;10.220;2022-07-01T06:27:23;32.70;48.40
58469;DHT22;44257;44.804;10.220;2022-07-01T06:29:49;33.00;48.30
58469;DHT22;44257;44.804;10.220;2022-07-01T06:32:15;33.20;46.60
58469;DHT22;44257;44.804;10.220;2022-07-01T06:34:41;33.10;46.60
58469;DHT22;44257;44.804;10.220;2022-07-01T06:37:07;32.90;46.00
58469;DHT22;44257;44.804;10.220;2022-07-01T06:39:33;32.70;45.60
58469;DHT22;44257;44.804;10.220;2022-07-01T06:41:59;32.70;45.00
58469;DHT22;44257;44.804;10.220;2022-07-01T06:44:27;32.70;45.10
58469;DHT22;44257;44.804;10.220;2022-07-01T06:46:53;32.50;45.20
58469;DHT22;44257;44.804;10.220;2022-07-01T06:49:18;32.30;45.50
58469;DHT22;44257;44.804;10.220;2022-07-01T06:51:46;32.40;47.40
58469;DHT22;44257;44.804;10.220;2022-07-01T06:54:12;32.50;44.40
58469;DHT22;44257;44.804;10.220;2022-07-01T06:56:37;32.40;45.70
58469;DHT22;44257;44.804;10.220;2022-07-01T06:59:03;32.40;48.30
58469;DHT22;44257;44.804;10.220;2022-07-01T07:01:29;32.20;46.90
58469;DHT22;44257;44.804;10.220;2022-07-01T07:03:55;31.90;47.60
58469;DHT22;44257;44.804;10.220;2022-07-01T07:06:22;31.70;48.80
58469;DHT22;44257;44.804;10.220;2022-07-01T07:08:48;31.30;49.30
58469;DHT22;44257;44.804;10.220;2022-07-01T07:11:14;31.10;47.70
58469;DHT22;44257;44.804;10.220;2022-07-01T07:13:41;31.00;47.70
58469;DHT22;44257;44.804;10.220;2022-07-01T07:16:08;30.90;49.30
58469;DHT22;44257;44.804;10.220;2022-07-01T07:18:34;31.00;51.30
58469;DHT22;44257;44.804;10.220;2022-07-01T07:21:00;31.10;50.60
58469;DHT22;44257;44.804;10.220;2022-07-01T07:23:26;31.30;47.80
58469;DHT22;44257;44.804;10.220;2022-07-01T07:25:52;31.50;48.30
58469;DHT22;44257;44.804;10.220;2022-07-01T07:28:18;31.70;46.50
58469;DHT22;44257;44.804;10.220;2022-07-01T07:30:44;32.00;46.90
58469;DHT22;44257;44.804;10.220;2022-07-01T07:33:10;32.00;47.60
58469;DHT22;44257;44.804;10.220;2022-07-01T07:35:36;32.00;48.00
58469;DHT22;44257;44.804;10.220;2022-07-01T07:38:01;31.90;45.90
58469;DHT22;44257;44.804;10.220;2022-07-01T07:40:27;31.80;46.90
58469;DHT22;44257;44.804;10.220;2022-07-01T07:42:53;31.80;46.10
58469;DHT22;44257;44.804;10.220;2022-07-01T07:45:20;31.70;46.70
58469;DHT22;44257;44.804;10.220;2022-07-01T07:47:48;31.60;45.70
58469;DHT22;44257;44.804;10.220;2022-07-01T07:50:15;31.60;46.30
58469;DHT22;44257;44.804;10.220;2022-07-01T07:52:42;31.40;47.20
58469;DHT22;44257;44.804;10.220;2022-07-01T07:55:09;31.30;47.50
58469;DHT22;44257;44.804;10.220;2022-07-01T07:57:36;31.00;47.40
58469;DHT22;44257;44.804;10.220;2022-07-01T08:00:04;30.60;48.40
58469;DHT22;44257;44.804;10.220;2022-07-01T08:02:37;30.20;48.90
58469;DHT22;44257;44.804;10.220;2022-07-01T08:05:03;29.90;50.20
58469;DHT22;44257;44.804;10.220;2022-07-01T08:07:29;29.80;51.70
58469;DHT22;44257;44.804;10.220;2022-07-01T08:09:56;29.70;52.80
58469;DHT22;44257;44.804;10.220;2022-07-01T08:12:22;29.90;53.20
58469;DHT22;44257;44.804;10.220;2022-07-01T08:14:48;30.10;52.60
58469;DHT22;44257;44.804;10.220;2022-07-01T08:17:14;30.10;52.00
58469;DHT22;44257;44.804;10.220;2022-07-01T08:19:41;30.20;51.10
58469;DHT22;44257;44.804;10.220;2022-07-01T08:22:09;30.10;50.80
58469;DHT22;44257;44.804;10.220;2022-07-01T08:24:37;30.10;50.90
58469;DHT22;44257;44.804;10.220;2022-07-01T08:27:03;29.80;51.20
58469;DHT22;44257;44.804;10.220;2022-07-01T08:29:31;29.60;51.80
58469;DHT22;44257;44.804;10.220;2022-07-01T08:31:56;29.30;51.70
58469;DHT22;44257;44.804;10.220;2022-07-01T08:34:22;29.10;51.30
58469;DHT22;44257;44.804;10.220;2022-07-01T08:36:51;28.90;51.90
58469;DHT22;44257;44.804;10.220;2022-07-01T08:39:17;29.00;50.90
58469;DHT22;44257;44.804;10.220;2022-07-01T08:41:43;29.00;49.60
58469;DHT22;44257;44.804;10.220;2022-07-01T08:44:09;29.10;50.40
58469;DHT22;44257;44.804;10.220;2022-07-01T08:46:35;29.20;50.60
58469;DHT22;44257;44.804;10.220;2022-07-01T08:49:02;29.30;50.70
58469;DHT22;44257;44.804;10.220;2022-07-01T08:51:28;29.30;50.60
58469;DHT22;44257;44.804;10.220;2022-07-01T08:53:54;29.30;51.50
58469;DHT22;44257;44.804;10.220;2022-07-01T08:56:21;29.30;52.70
58469;DHT22;44257;44.804;10.220;2022-07-01T08:59:06;29.20;53.90
58469;DHT22;44257;44.804;10.220;2022-07-01T09:01:32;29.10;55.00
58469;DHT22;44257;44.804;10.220;2022-07-01T09:04:17;29.10;55.60
58469;DHT22;44257;44.804;10.220;2022-07-01T09:06:44;29.40;53.60
58469;DHT22;44257;44.804;10.220;2022-07-01T09:09:18;29.70;54.70
58469;DHT22;44257;44.804;10.220;2022-07-01T09:11:49;30.00;52.60
58469;DHT22;44257;44.804;10.220;2022-07-01T09:14:25;30.20;51.90
58469;DHT22;44257;44.804;10.220;2022-07-01T09:16:53;30.20;51.60
58469;DHT22;44257;44.804;10.220;2022-07-01T09:19:22;30.20;51.90
58469;DHT22;44257;44.804;10.220;2022-07-01T09:21:49;30.20;52.00
58469;DHT22;44257;44.804;10.220;2022-07-01T09:24:38;30.20;51.60
58469;DHT22;44257;44.804;10.220;2022-07-01T09:27:07;30.30;53.70
58469;DHT22;44257;44.804;10.220;2022-07-01T09:29:57;30.50;51.80
58469;DHT22;44257;44.804;10.220;2022-07-01T09:32:24;30.60;50.90
58469;DHT22;44257;44.804;10.220;2022-07-01T09:34:52;30.60;51.30
58469;DHT22;44257;44.804;10.220;2022-07-01T09:37:20;31.00;50.30
58469;DHT22;44257;44.804;10.220;2022-07-01T09:39:52;31.20;50.40
58469;DHT22;44257;44.804;10.220;2022-07-01T09:42:25;31.40;49.10
58469;DHT22;44257;44.804;10.220;2022-07-01T09:44:57;31.50;46.90
58469;DHT22;44257;44.804;10.220;2022-07-01T09:47:29;31.60;48.20
58469;DHT22;44257;44.804;10.220;2022-07-01T09:49:58;31.60;47.90
58469;DHT22;44257;44.804;10.220;2022-07-01T09:52:25;31.60;47.60
58469;DHT22;44257;44.804;10.220;2022-07-01T09:54:59;31.60;46.60
58469;DHT22;44257;44.804;10.220;2022-07-01T09:57:26;31.80;47.40
58469;DHT22;44257;44.804;10.220;2022-07-01T09:59:56;32.00;47.90
58469;DHT22;44257;44.804;10.220;2022-07-01T10:02:31;32.40;49.40
58469;DHT22;44257;44.804;10.220;2022-07-01T10:05:11;32.60;46.60
58469;DHT22;44257;44.804;10.220;2022-07-01T10:11:30;32.70;45.00
58469;DHT22;44257;44.804;10.220;2022-07-01T10:14:10;32.70;46.90
58469;DHT22;44257;44.804;10.220;2022-07-01T10:16:37;32.80;47.60
58469;DHT22;44257;44.804;10.220;2022-07-01T10:21:55;32.60;49.00
58469;DHT22;44257;44.804;10.220;2022-07-01T10:24:24;32.80;47.00
58469;DHT22;44257;44.804;10.220;2022-07-01T10:26:52;32.80;47.70
58469;DHT22;44257;44.804;10.220;2022-07-01T10:29:35;33.00;48.20
58469;DHT22;44257;44.804;10.220;2022-07-01T10:32:25;33.30;46.90
58469;DHT22;44257;44.804;10.220;2022-07-01T10:35:06;33.50;46.10
58469;DHT22;44257;44.804;10.220;2022-07-01T10:38:00;33.70;45.30
58469;DHT22;44257;44.804;10.220;2022-07-01T10:40:44;33.90;43.90
58469;DHT22;44257;44.804;10.220;2022-07-01T10:43:11;33.90;47.70
58469;DHT22;44257;44.804;10.220;2022-07-01T10:45:44;34.20;47.60
58469;DHT22;44257;44.804;10.220;2022-07-01T10:48:22;34.30;46.30
58469;DHT22;44257;44.804;10.220;2022-07-01T10:50:48;34.50;44.00
58469;DHT22;44257;44.804;10.220;2022-07-01T10:53:15;34.40;43.40
58469;DHT22;44257;44.804;10.220;2022-07-01T10:55:45;34.40;48.30
58469;DHT22;44257;44.804;10.220;2022-07-01T10:58:12;34.50;46.00
58469;DHT22;44257;44.804;10.220;2022-07-01T11:00:47;34.50;45.90
58469;DHT22;44257;44.804;10.220;2022-07-01T11:03:21;34.70;44.30
58469;DHT22;44257;44.804;10.220;2022-07-01T11:05:51;34.80;47.00
58469;DHT22;44257;44.804;10.220;2022-07-01T11:08:21;34.90;43.50
58469;DHT22;44257;44.804;10.220;2022-07-01T11:10:51;34.70;43.40
58469;DHT22;44257;44.804;10.220;2022-07-01T11:13:19;34.40;43.30
58469;DHT22;44257;44.804;10.220;2022-07-01T11:15:46;34.10;43.20
58469;DHT22;44257;44.804;10.220;2022-07-01T11:18:14;33.90;43.40
58469;DHT22;44257;44.804;10.220;2022-07-01T11:20:41;33.80;43.70
58469;DHT22;44257;44.804;10.220;2022-07-01T11:23:07;33.80;44.40
58469;DHT22;44257;44.804;10.220;2022-07-01T11:25:46;33.90;45.50
58469;DHT22;44257;44.804;10.220;2022-07-01T11:28:12;34.10;46.90
58469;DHT22;44257;44.804;10.220;2022-07-01T11:30:38;34.30;47.20
58469;DHT22;44257;44.804;10.220;2022-07-01T11:33:04;34.50;47.00
58469;DHT22;44257;44.804;10.220;2022-07-01T11:35:31;34.70;47.00
58469;DHT22;44257;44.804;10.220;2022-07-01T11:38:18;35.00;46.60
58469;DHT22;44257;44.804;10.220;2022-07-01T11:41:17;35.20;46.70
58469;DHT22;44257;44.804;10.220;2022-07-01T11:43:44;35.30;46.10
58469;DHT22;44257;44.804;10.220;2022-07-01T11:46:10;35.50;46.80
58469;DHT22;44257;44.804;10.220;2022-07-01T11:48:43;35.70;45.30
58469;DHT22;44257;44.804;10.220;2022-07-01T11:51:18;35.80;45.10
58469;DHT22;44257;44.804;10.220;2022-07-01T11:53:46;35.80;44.10
58469;DHT22;44257;44.804;10.220;2022-07-01T11:56:17;35.90;42.30
58469;DHT22;44257;44.804;10.220;2022-07-01T12:01:11;35.90;42.70
58469;DHT22;44257;44.804;10.220;2022-07-01T12:03:45;35.90;42.10
58469;DHT22;44257;44.804;10.220;2022-07-01T12:06:11;35.90;43.50
58469;DHT22;44257;44.804;10.220;2022-07-01T12:08:40;35.80;43.90
58469;DHT22;44257;44.804;10.220;2022-07-01T12:11:06;35.70;42.90
58469;DHT22;44257;44.804;10.220;2022-07-01T12:13:35;35.60;44.00
58469;DHT22;44257;44.804;10.220;2022-07-01T12:16:08;35.40;44.10
58469;DHT22;44257;44.804;10.220;2022-07-01T12:18:35;35.10;43.80
58469;DHT22;44257;44.804;10.220;2022-07-01T12:21:01;35.10;43.70
58469;DHT22;44257;44.804;10.220;2022-07-01T12:23:29;34.90;43.30
58469;DHT22;44257;44.804;10.220;2022-07-01T12:25:56;34.70;41.10
58469;DHT22;44257;44.804;10.220;2022-07-01T12:28:29;34.60;44.10
58469;DHT22;44257;44.804;10.220;2022-07-01T12:31:04;34.70;45.50
58469;DHT22;44257;44.804;10.220;2022-07-01T12:33:39;35.00;45.60
58469;DHT22;44257;44.804;10.220;2022-07-01T12:36:06;35.30;44.80
58469;DHT22;44257;44.804;10.220;2022-07-01T12:41:31;36.00;43.60
58469;DHT22;44257;44.804;10.220;2022-07-01T12:44:05;36.30;41.70
58469;DHT22;44257;44.804;10.220;2022-07-01T12:46:32;36.30;40.10
58469;DHT22;44257;44.804;10.220;2022-07-01T12:48:59;36.50;39.50
58469;DHT22;44257;44.804;10.220;2022-07-01T12:51:33;36.60;40.40
58469;DHT22;44257;44.804;10.220;2022-07-01T12:53:59;36.70;41.10
58469;DHT22;44257;44.804;10.220;2022-07-01T12:56:27;36.90;41.00
58469;DHT22;44257;44.804;10.220;2022-07-01T12:58:54;36.90;42.40
58469;DHT22;44257;44.804;10.220;2022-07-01T13:01:21;36.90;41.80
58469;DHT22;44257;44.804;10.220;2022-07-01T13:03:48;37.00;41.20
58469;DHT22;44257;44.804;10.220;2022-07-01T13:06:14;37.10;40.70
58469;DHT22;44257;44.804;10.220;2022-07-01T13:08:40;37.20;42.40
58469;DHT22;44257;44.804;10.220;2022-07-01T13:11:06;37.30;42.30
58469;DHT22;44257;44.804;10.220;2022-07-01T13:13:32;37.20;40.30
58469;DHT22;44257;44.804;10.220;2022-07-01T13:18:25;37.30;41.70
58469;DHT22;44257;44.804;10.220;2022-07-01T13:20:53;37.20;41.20
58469;DHT22;44257;44.804;10.220;2022-07-01T13:23:19;37.20;42.10
58469;DHT22;44257;44.804;10.220;2022-07-01T13:25:44;37.10;40.80
58469;DHT22;44257;44.804;10.220;2022-07-01T13:28:10;37.10;41.70
58469;DHT22;44257;44.804;10.220;2022-07-01T13:30:37;37.10;42.10
58469;DHT22;44257;44.804;10.220;2022-07-01T13:33:03;37.00;40.40
58469;DHT22;44257;44.804;10.220;2022-07-01T13:35:31;37.00;41.90
58469;DHT22;44257;44.804;10.220;2022-07-01T13:37:57;36.80;42.30
58469;DHT22;44257;44.804;10.220;2022-07-01T13:40:23;36.60;41.80
58469;DHT22;44257;44.804;10.220;2022-07-01T13:42:49;36.50;43.60
58469;DHT22;44257;44.804;10.220;2022-07-01T13:45:15;36.60;42.00
58469;DHT22;44257;44.804;10.220;2022-07-01T13:47:41;36.80;43.20
58469;DHT22;44257;44.804;10.220;2022-07-01T13:50:08;36.90;42.90
58469;DHT22;44257;44.804;10.220;2022-07-01T13:52:34;37.00;42.10
58469;DHT22;44257;44.804;10.220;2022-07-01T13:55:00;36.80;41.70
58469;DHT22;44257;44.804;10.220;2022-07-01T13:57:26;36.60;42.40
58469;DHT22;44257;44.804;10.220;2022-07-01T13:59:53;36.50;41.90
58469;DHT22;44257;44.804;10.220;2022-07-01T14:02:19;36.60;42.90
58469;DHT22;44257;44.804;10.220;2022-07-01T14:04:46;36.60;42.70
58469;DHT22;44257;44.804;10.220;2022-07-01T14:07:13;36.70;42.20
58469;DHT22;44257;44.804;10.220;2022-07-01T14:09:39;36.80;40.60
58469;DHT22;44257;44.804;10.220;2022-07-01T14:12:06;36.90;40.60
58469;DHT22;44257;44.804;10.220;2022-07-01T14:14:32;36.90;42.10
58469;DHT22;44257;44.804;10.220;2022-07-01T14:16:59;36.90;41.90
58469;DHT22;44257;44.804;10.220;2022-07-01T14:19:25;37.00;41.80
58469;DHT22;44257;44.804;10.220;2022-07-01T14:21:53;36.90;39.70
58469;DHT22;44257;44.804;10.220;2022-07-01T14:24:20;37.00;41.00
58469;DHT22;44257;44.804;10.220;2022-07-01T14:26:46;36.90;41.10
58469;DHT22;44257;44.804;10.220;2022-07-01T14:29:12;37.00;42.80
58469;DHT22;44257;44.804;10.220;2022-07-01T14:31:38;36.90;40.50
58469;DHT22;44257;44.804;10.220;2022-07-01T14:34:05;36.70;40.90
58469;DHT22;44257;44.804;10.220;2022-07-01T14:36:31;36.50;40.40
58469;DHT22;44257;44.804;10.220;2022-07-01T14:38:57;36.40;41.00
58469;DHT22;44257;44.804;10.220;2022-07-01T14:41:23;36.30;41.80
58469;DHT22;44257;44.804;10.220;2022-07-01T14:43:50;36.30;41.40
58469;DHT22;44257;44.804;10.220;2022-07-01T14:46:16;36.30;39.70
58469;DHT22;44257;44.804;10.220;2022-07-01T14:48:42;36.30;41.20
58469;DHT22;44257;44.804;10.220;2022-07-01T14:51:08;36.30;40.40
58469;DHT22;44257;44.804;10.220;2022-07-01T14:53:34;36.20;41.50
58469;DHT22;44257;44.804;10.220;2022-07-01T14:56:00;36.20;39.50
58469;DHT22;44257;44.804;10.220;2022-07-01T14:58:26;36.10;41.40
58469;DHT22;44257;44.804;10.220;2022-07-01T15:00:52;36.00;42.00
58469;DHT22;44257;44.804;10.220;2022-07-01T15:03:18;35.90;42.00
58469;DHT22;44257;44.804;10.220;2022-07-01T15:05:44;35.80;41.60
58469;DHT22;44257;44.804;10.220;2022-07-01T15:08:10;35.80;42.70
58469;DHT22;44257;44.804;10.220;2022-07-01T15:10:38;35.90;41.90
58469;DHT22;44257;44.804;10.220;2022-07-01T15:13:03;36.00;41.10
58469;DHT22;44257;44.804;10.220;2022-07-01T15:15:30;35.90;41.50
58469;DHT22;44257;44.804;10.220;2022-07-01T15:17:56;35.80;42.90
58469;DHT22;44257;44.804;10.220;2022-07-01T15:20:23;35.70;42.90
58469;DHT22;44257;44.804;10.220;2022-07-01T15:22:49;35.70;41.50
58469;DHT22;44257;44.804;10.220;2022-07-01T15:25:15;35.70;42.00
58469;DHT22;44257;44.804;10.220;2022-07-01T15:27:43;35.70;41.60
58469;DHT22;44257;44.804;10.220;2022-07-01T15:30:09;35.70;40.60
58469;DHT22;44257;44.804;10.220;2022-07-01T15:32:39;35.70;41.80
58469;DHT22;44257;44.804;10.220;2022-07-01T15:35:05;35.70;42.60